createdAt,value
2022-11-29T00:00:42.657Z,1.06
2022-11-29T00:01:42.788Z,1.05
2022-11-29T00:02:42.770Z,1.08
2022-11-29T00:03:42.657Z,1.12
2022-11-29T00:04:42.967Z,1.19
2022-11-29T00:05:42.601Z,1.10
2022-11-29T00:06:42.587Z,1.10
2022-11-29T00:07:42.656Z,0.99
2022-11-29T00:08:42.589Z,0.96
2022-11-29T00:09:42.585Z,1.13
2022-11-29T00:10:42.547Z,1.05
2022-11-29T00:11:42.527Z,1.01
2022-11-29T00:12:42.520Z,0.98
2022-11-29T00:13:42.537Z,0.98
2022-11-29T00:14:42.867Z,0.96
2022-11-29T00:15:42.517Z,0.96
2022-11-29T00:16:42.568Z,0.95
2022-11-29T00:17:42.467Z,0.91
2022-11-29T00:18:42.464Z,1.05
2022-11-29T00:19:43.443Z,0.95
2022-11-29T00:20:42.455Z,0.94
2022-11-29T00:21:42.450Z,1.02
2022-11-29T00:22:42.414Z,0.96
2022-11-29T00:23:42.428Z,0.95
2022-11-29T00:24:42.712Z,0.88
2022-11-29T00:25:42.375Z,0.95
2022-11-29T00:26:42.401Z,0.98
2022-11-29T00:27:42.391Z,0.91
2022-11-29T00:28:42.348Z,0.96
2022-11-29T00:29:42.335Z,0.99
2022-11-29T00:30:42.438Z,0.91
2022-11-29T00:31:42.312Z,0.92
2022-11-29T00:32:42.304Z,0.96
2022-11-29T00:33:42.433Z,0.91
2022-11-29T00:34:43.236Z,0.92
2022-11-29T00:35:42.274Z,0.88
2022-11-29T00:36:42.281Z,0.91
2022-11-29T00:37:42.241Z,0.91
2022-11-29T00:38:42.235Z,0.91
2022-11-29T00:39:42.347Z,0.87
2022-11-29T00:40:42.225Z,0.88
2022-11-29T00:41:42.231Z,0.94
2022-11-29T00:42:42.192Z,0.92
2022-11-29T00:43:42.184Z,0.88
2022-11-29T00:44:42.634Z,0.92
2022-11-29T00:45:42.327Z,0.81
2022-11-29T00:46:42.147Z,0.91
2022-11-29T00:47:42.137Z,0.81
2022-11-29T00:48:42.136Z,0.92
2022-11-29T00:49:42.939Z,0.84
2022-11-29T00:50:42.105Z,0.88
2022-11-29T00:51:42.126Z,0.87
2022-11-29T00:52:42.106Z,0.83
2022-11-29T00:53:42.070Z,0.83
2022-11-29T00:54:42.350Z,0.78
2022-11-29T00:55:42.069Z,0.77
2022-11-29T00:56:42.037Z,0.87
2022-11-29T00:57:42.032Z,0.74
2022-11-29T00:58:42.032Z,0.77
2022-11-29T00:59:42.001Z,0.76
2022-11-29T01:00:41.994Z,0.76
2022-11-29T01:01:42.069Z,0.78
2022-11-29T01:02:42.010Z,0.73
2022-11-29T01:03:42.085Z,0.74
2022-11-29T01:04:42.113Z,0.80
2022-11-29T01:05:41.933Z,0.70
2022-11-29T01:06:41.922Z,0.68
2022-11-29T01:07:41.958Z,0.77
2022-11-29T01:08:41.924Z,0.70
2022-11-29T01:09:41.910Z,0.76
2022-11-29T01:10:41.894Z,0.73
2022-11-29T01:11:41.862Z,0.68
2022-11-29T01:12:41.883Z,0.74
2022-11-29T01:13:41.843Z,0.60
2022-11-29T01:14:42.176Z,0.66
2022-11-29T01:15:41.857Z,0.65
2022-11-29T01:16:41.879Z,0.66
2022-11-29T01:17:41.806Z,0.70
2022-11-29T01:18:41.786Z,0.70
2022-11-29T01:19:46.409Z,0.66
2022-11-29T01:20:42.902Z,0.69
2022-11-29T01:21:41.758Z,0.68
2022-11-29T01:22:41.773Z,0.69
2022-11-29T01:23:41.738Z,0.68
2022-11-29T01:24:42.174Z,0.59
2022-11-29T01:25:41.711Z,0.62
2022-11-29T01:26:41.731Z,0.58
2022-11-29T01:27:41.693Z,0.65
2022-11-29T01:28:42.448Z,0.58
2022-11-29T01:29:41.678Z,0.60
2022-11-29T01:30:41.742Z,0.56
2022-11-29T01:31:41.649Z,0.59
2022-11-29T01:32:41.740Z,0.59
2022-11-29T01:33:41.624Z,0.65
2022-11-29T01:34:41.830Z,0.59
2022-11-29T01:35:41.609Z,0.63
2022-11-29T01:36:41.726Z,0.50
2022-11-29T01:37:42.439Z,0.50
2022-11-29T01:38:41.754Z,0.55
2022-11-29T01:39:41.554Z,0.59
2022-11-29T01:40:41.572Z,0.63
2022-11-29T01:41:41.542Z,0.70
2022-11-29T01:42:41.526Z,0.66
2022-11-29T01:43:41.519Z,0.62
2022-11-29T01:44:41.809Z,0.62
2022-11-29T01:45:41.583Z,0.50
2022-11-29T01:46:41.485Z,0.55
2022-11-29T01:47:41.480Z,0.59
2022-11-29T01:48:41.464Z,0.55
2022-11-29T01:49:41.451Z,0.50
2022-11-29T01:50:41.494Z,0.50
2022-11-29T01:51:41.434Z,0.47
2022-11-29T01:52:41.954Z,0.49
2022-11-29T01:53:41.407Z,0.56
2022-11-29T01:54:41.550Z,0.47
2022-11-29T01:55:41.453Z,0.55
2022-11-29T01:56:41.436Z,0.55
2022-11-29T01:57:41.389Z,0.59
2022-11-29T01:58:41.341Z,0.44
2022-11-29T01:59:41.964Z,0.50
2022-11-29T02:00:41.324Z,0.55
2022-11-29T02:01:41.980Z,0.49
2022-11-29T02:02:41.410Z,0.50
2022-11-29T02:03:41.344Z,0.50
2022-11-29T02:04:41.287Z,0.36
2022-11-29T02:05:41.999Z,0.41
2022-11-29T02:06:41.263Z,0.50
2022-11-29T02:07:41.291Z,0.47
2022-11-29T02:08:41.250Z,0.50
2022-11-29T02:09:41.232Z,0.47
2022-11-29T02:10:41.215Z,0.34
2022-11-29T02:11:41.206Z,0.50
2022-11-29T02:12:41.220Z,0.31
2022-11-29T02:13:41.183Z,0.44
2022-11-29T02:14:41.183Z,0.40
2022-11-29T02:15:41.229Z,0.34
2022-11-29T02:16:41.147Z,0.43
2022-11-29T02:17:41.163Z,0.36
2022-11-29T02:18:41.133Z,0.34
2022-11-29T02:19:41.949Z,0.37
2022-11-29T02:20:41.134Z,0.41
2022-11-29T02:21:41.166Z,0.37
2022-11-29T02:22:41.092Z,0.26
2022-11-29T02:23:41.076Z,0.23
2022-11-29T02:24:41.067Z,0.25
2022-11-29T02:25:41.047Z,0.25
2022-11-29T02:26:41.076Z,0.36
2022-11-29T02:27:41.025Z,0.28
2022-11-29T02:28:41.034Z,0.26
2022-11-29T02:29:41.003Z,0.23
2022-11-29T02:30:41.068Z,0.26
2022-11-29T02:31:40.991Z,0.26
2022-11-29T02:32:41.007Z,0.21
2022-11-29T02:33:40.955Z,0.15
2022-11-29T02:34:41.025Z,0.22
2022-11-29T02:35:40.958Z,0.19
2022-11-29T02:36:40.931Z,0.23
2022-11-29T02:37:40.947Z,0.12
2022-11-29T02:38:41.026Z,0.11
2022-11-29T02:39:40.897Z,0.10
2022-11-29T02:40:40.876Z,0.15
2022-11-29T02:41:40.872Z,0.11
2022-11-29T02:42:40.864Z,0.15
2022-11-29T02:43:40.856Z,0.05
2022-11-29T02:44:40.942Z,0.15
2022-11-29T02:45:40.826Z,0.11
2022-11-29T02:46:40.944Z,0.15
2022-11-29T02:47:40.810Z,0.05
2022-11-29T02:48:40.790Z,0.08
2022-11-29T02:49:40.801Z,0.05
2022-11-29T02:50:40.798Z,0.05
2022-11-29T02:51:40.756Z,0.05
2022-11-29T02:52:41.764Z,0.08
2022-11-29T02:53:40.764Z,0.01
2022-11-29T02:54:40.724Z,0.03
2022-11-29T02:55:40.715Z,0.07
2022-11-29T02:56:40.714Z,0.01
2022-11-29T02:57:40.695Z,0.08
2022-11-29T02:58:40.682Z,0.03
2022-11-29T02:59:40.671Z,0.03
2022-11-29T03:00:40.683Z,0.05
2022-11-29T03:01:40.707Z,0.04
2022-11-29T03:02:40.781Z,0.01
2022-11-29T03:03:40.624Z,0.00
2022-11-29T03:04:40.618Z,0.00
2022-11-29T03:05:40.606Z,0.01
2022-11-29T03:06:40.592Z,0.03
2022-11-29T03:07:40.699Z,-0.10
2022-11-29T03:08:40.602Z,-0.02
2022-11-29T03:09:40.566Z,-0.02
2022-11-29T03:10:40.565Z,-0.03
2022-11-29T03:11:40.553Z,0.03
2022-11-29T03:12:40.567Z,0.00
2022-11-29T03:13:40.514Z,-0.03
2022-11-29T03:14:40.584Z,0.01
2022-11-29T03:15:41.677Z,-0.06
2022-11-29T03:16:43.201Z,0.00
2022-11-29T03:17:40.475Z,-0.07
2022-11-29T03:18:40.462Z,-0.03
2022-11-29T03:19:40.453Z,-0.15
2022-11-29T03:20:40.486Z,-0.13
2022-11-29T03:21:40.425Z,-0.11
2022-11-29T03:22:40.415Z,-0.06
2022-11-29T03:23:40.399Z,-0.14
2022-11-29T03:24:40.396Z,-0.07
2022-11-29T03:25:40.381Z,-0.11
2022-11-29T03:26:40.410Z,-0.11
2022-11-29T03:27:40.358Z,-0.11
2022-11-29T03:28:40.346Z,-0.03
2022-11-29T03:29:40.367Z,-0.14
2022-11-29T03:30:40.340Z,-0.07
2022-11-29T03:31:40.317Z,-0.10
2022-11-29T03:32:40.371Z,-0.14
2022-11-29T03:33:40.285Z,-0.21
2022-11-29T03:34:41.040Z,-0.14
2022-11-29T03:35:40.275Z,-0.15
2022-11-29T03:36:40.261Z,-0.10
2022-11-29T03:37:40.249Z,-0.20
2022-11-29T03:38:40.283Z,-0.10
2022-11-29T03:39:40.229Z,-0.23
2022-11-29T03:40:40.211Z,-0.08
2022-11-29T03:41:40.227Z,-0.20
2022-11-29T03:42:40.193Z,-0.18
2022-11-29T03:43:40.956Z,-0.15
2022-11-29T03:44:40.210Z,-0.17
2022-11-29T03:45:40.219Z,-0.21
2022-11-29T03:46:40.194Z,-0.15
2022-11-29T03:47:40.175Z,-0.20
2022-11-29T03:48:40.153Z,-0.20
2022-11-29T03:49:40.167Z,-0.10
2022-11-29T03:50:40.135Z,-0.17
2022-11-29T03:51:40.086Z,-0.26
2022-11-29T03:52:40.079Z,-0.17
2022-11-29T03:53:40.073Z,-0.18
2022-11-29T03:54:40.057Z,-0.21
2022-11-29T03:55:40.049Z,-0.18
2022-11-29T03:56:40.069Z,-0.23
2022-11-29T03:57:40.031Z,-0.26
2022-11-29T03:58:40.018Z,-0.18
2022-11-29T03:59:40.007Z,-0.11
2022-11-29T04:00:39.993Z,-0.13
2022-11-29T04:01:40.980Z,-0.15
2022-11-29T04:02:40.055Z,-0.18
2022-11-29T04:03:39.953Z,-0.11
2022-11-29T04:04:39.980Z,-0.14
2022-11-29T04:05:39.936Z,-0.23
2022-11-29T04:06:39.924Z,-0.17
2022-11-29T04:07:39.966Z,-0.21
2022-11-29T04:08:40.028Z,-0.18
2022-11-29T04:09:39.892Z,-0.08
2022-11-29T04:10:39.874Z,-0.20
2022-11-29T04:11:39.865Z,-0.20
2022-11-29T04:12:39.855Z,-0.20
2022-11-29T04:13:39.847Z,-0.23
2022-11-29T04:14:39.868Z,-0.18
2022-11-29T04:15:39.891Z,-0.18
2022-11-29T04:16:39.842Z,-0.23
2022-11-29T04:17:39.801Z,-0.26
2022-11-29T04:18:39.794Z,-0.25
2022-11-29T04:19:39.777Z,-0.25
2022-11-29T04:20:43.096Z,-0.23
2022-11-29T04:21:40.752Z,-0.26
2022-11-29T04:22:39.743Z,-0.23
2022-11-29T04:23:39.740Z,-0.18
2022-11-29T04:24:39.742Z,-0.31
2022-11-29T04:25:39.738Z,-0.25
2022-11-29T04:26:39.728Z,-0.26
2022-11-29T04:27:39.682Z,-0.32
2022-11-29T04:28:39.681Z,-0.32
2022-11-29T04:29:39.662Z,-0.38
2022-11-29T04:30:39.658Z,-0.23
2022-11-29T04:31:39.642Z,-0.28
2022-11-29T04:32:39.672Z,-0.29
2022-11-29T04:33:39.630Z,-0.26
2022-11-29T04:34:39.613Z,-0.31
2022-11-29T04:35:39.618Z,-0.32
2022-11-29T04:36:39.610Z,-0.41
2022-11-29T04:37:39.579Z,-0.39
2022-11-29T04:38:39.598Z,-0.31
2022-11-29T04:39:39.564Z,-0.39
2022-11-29T04:40:39.544Z,-0.35
2022-11-29T04:41:39.533Z,-0.36
2022-11-29T04:42:39.522Z,-0.36
2022-11-29T04:43:40.469Z,-0.39
2022-11-29T04:44:39.553Z,-0.39
2022-11-29T04:45:39.489Z,-0.38
2022-11-29T04:46:39.512Z,-0.41
2022-11-29T04:47:39.466Z,-0.29
2022-11-29T04:48:39.449Z,-0.34
2022-11-29T04:49:39.448Z,-0.34
2022-11-29T04:50:39.527Z,-0.38
2022-11-29T04:51:39.973Z,-0.39
2022-11-29T04:52:39.438Z,-0.38
2022-11-29T04:53:39.400Z,-0.41
2022-11-29T04:54:39.392Z,-0.32
2022-11-29T04:55:39.440Z,-0.39
2022-11-29T04:56:39.393Z,-0.32
2022-11-29T04:57:39.360Z,-0.36
2022-11-29T04:58:39.973Z,-0.39
2022-11-29T04:59:39.336Z,-0.47
2022-11-29T05:00:39.348Z,-0.41
2022-11-29T05:01:39.327Z,-0.32
2022-11-29T05:02:39.398Z,-0.44
2022-11-29T05:03:39.284Z,-0.39
2022-11-29T05:04:39.295Z,-0.32
2022-11-29T05:05:39.280Z,-0.47
2022-11-29T05:06:39.269Z,-0.41
2022-11-29T05:07:39.265Z,-0.46
2022-11-29T05:08:39.380Z,-0.43
2022-11-29T05:09:39.219Z,-0.46
2022-11-29T05:10:39.237Z,-0.44
2022-11-29T05:11:39.200Z,-0.44
2022-11-29T05:12:39.188Z,-0.49
2022-11-29T05:13:39.214Z,-0.43
2022-11-29T05:14:39.208Z,-0.46
2022-11-29T05:15:39.237Z,-0.47
2022-11-29T05:16:39.139Z,-0.46
2022-11-29T05:17:39.129Z,-0.49
2022-11-29T05:18:39.128Z,-0.46
2022-11-29T05:19:39.110Z,-0.47
2022-11-29T05:20:39.130Z,-0.44
2022-11-29T05:21:39.084Z,-0.52
2022-11-29T05:22:39.071Z,-0.49
2022-11-29T05:23:39.082Z,-0.50
2022-11-29T05:24:39.102Z,-0.52
2022-11-29T05:25:39.045Z,-0.50
2022-11-29T05:26:39.047Z,-0.52
2022-11-29T05:27:39.042Z,-0.52
2022-11-29T05:28:39.012Z,-0.53
2022-11-29T05:29:38.995Z,-0.46
2022-11-29T05:30:38.992Z,-0.56
2022-11-29T05:31:39.040Z,-0.53
2022-11-29T05:32:39.000Z,-0.44
2022-11-29T05:33:38.972Z,-0.47
2022-11-29T05:34:38.946Z,-0.54
2022-11-29T05:35:38.945Z,-0.41
2022-11-29T05:36:38.936Z,-0.44
2022-11-29T05:37:38.949Z,-0.50
2022-11-29T05:38:38.935Z,-0.43
2022-11-29T05:39:38.918Z,-0.59
2022-11-29T05:40:38.900Z,-0.49
2022-11-29T05:41:38.898Z,-0.54
2022-11-29T05:42:38.857Z,-0.54
2022-11-29T05:43:38.845Z,-0.44
2022-11-29T05:44:38.864Z,-0.52
2022-11-29T05:45:38.907Z,-0.46
2022-11-29T05:46:38.861Z,-0.49
2022-11-29T05:47:38.802Z,-0.43
2022-11-29T05:48:38.797Z,-0.57
2022-11-29T05:49:39.484Z,-0.47
2022-11-29T05:50:38.840Z,-0.56
2022-11-29T05:51:38.756Z,-0.49
2022-11-29T05:52:38.750Z,-0.50
2022-11-29T05:53:38.738Z,-0.57
2022-11-29T05:54:38.742Z,-0.52
2022-11-29T05:55:38.720Z,-0.59
2022-11-29T05:56:38.821Z,-0.56
2022-11-29T05:57:38.690Z,-0.64
2022-11-29T05:58:38.680Z,-0.53
2022-11-29T05:59:38.685Z,-0.62
2022-11-29T06:00:38.654Z,-0.61
2022-11-29T06:01:38.713Z,-0.62
2022-11-29T06:02:38.740Z,-0.59
2022-11-29T06:03:38.625Z,-0.71
2022-11-29T06:04:38.614Z,-0.65
2022-11-29T06:05:38.625Z,-0.64
2022-11-29T06:06:38.607Z,-0.61
2022-11-29T06:07:38.689Z,-0.64
2022-11-29T06:08:38.655Z,-0.68
2022-11-29T06:09:38.558Z,-0.52
2022-11-29T06:10:38.551Z,-0.67
2022-11-29T06:11:38.533Z,-0.61
2022-11-29T06:12:38.546Z,-0.53
2022-11-29T06:13:38.601Z,-0.64
2022-11-29T06:14:38.535Z,-0.59
2022-11-29T06:15:38.506Z,-0.59
2022-11-29T06:16:38.501Z,-0.56
2022-11-29T06:17:39.353Z,-0.59
2022-11-29T06:18:38.452Z,-0.53
2022-11-29T06:19:38.444Z,-0.61
2022-11-29T06:20:38.485Z,-0.54
2022-11-29T06:21:38.432Z,-0.50
2022-11-29T06:22:38.414Z,-0.59
2022-11-29T06:23:38.416Z,-0.47
2022-11-29T06:24:38.411Z,-0.54
2022-11-29T06:25:38.386Z,-0.43
2022-11-29T06:26:38.387Z,-0.46
2022-11-29T06:27:38.356Z,-0.46
2022-11-29T06:28:38.376Z,-0.49
2022-11-29T06:29:38.329Z,-0.47
2022-11-29T06:30:38.339Z,-0.39
2022-11-29T06:31:38.492Z,-0.34
2022-11-29T06:32:38.323Z,-0.43
2022-11-29T06:33:38.291Z,-0.36
2022-11-29T06:34:38.302Z,-0.35
2022-11-29T06:35:38.290Z,-0.38
2022-11-29T06:36:39.050Z,-0.39
2022-11-29T06:37:38.240Z,-0.38
2022-11-29T06:38:38.291Z,-0.39
2022-11-29T06:39:38.241Z,-0.44
2022-11-29T06:40:38.214Z,-0.28
2022-11-29T06:41:38.205Z,-0.35
2022-11-29T06:42:38.185Z,-0.29
2022-11-29T06:43:38.179Z,-0.29
2022-11-29T06:44:38.217Z,-0.29
2022-11-29T06:45:38.156Z,-0.32
2022-11-29T06:46:39.135Z,-0.29
2022-11-29T06:47:38.140Z,-0.34
2022-11-29T06:48:38.126Z,-0.17
2022-11-29T06:49:38.295Z,-0.23
2022-11-29T06:50:38.788Z,-0.21
2022-11-29T06:51:38.139Z,-0.13
2022-11-29T06:52:39.014Z,-0.10
2022-11-29T06:53:38.151Z,-0.03
2022-11-29T06:54:38.085Z,-0.03
2022-11-29T06:55:39.021Z,0.00
2022-11-29T06:56:40.703Z,-0.06
2022-11-29T06:57:38.056Z,0.04
2022-11-29T06:58:38.001Z,0.04
2022-11-29T06:59:38.992Z,0.05
2022-11-29T07:00:38.093Z,0.11
2022-11-29T07:01:38.008Z,0.15
2022-11-29T07:02:37.997Z,0.28
2022-11-29T07:03:37.967Z,0.23
2022-11-29T07:04:42.625Z,0.21
2022-11-29T07:05:38.949Z,0.26
2022-11-29T07:06:37.929Z,0.36
2022-11-29T07:07:37.997Z,0.29
2022-11-29T07:08:37.939Z,0.39
2022-11-29T07:09:37.894Z,0.47
2022-11-29T07:10:37.877Z,0.50
2022-11-29T07:11:37.875Z,0.49
2022-11-29T07:12:37.854Z,0.55
2022-11-29T07:13:37.840Z,0.55
2022-11-29T07:14:37.873Z,0.60
2022-11-29T07:15:38.072Z,0.66
2022-11-29T07:16:37.894Z,0.63
2022-11-29T07:17:37.798Z,0.63
2022-11-29T07:18:37.846Z,0.59
2022-11-29T07:19:37.770Z,0.60
2022-11-29T07:20:37.802Z,0.69
2022-11-29T07:21:37.771Z,0.74
2022-11-29T07:22:37.744Z,0.74
2022-11-29T07:23:37.734Z,0.88
2022-11-29T07:24:37.718Z,0.84
2022-11-29T07:25:37.759Z,0.95
2022-11-29T07:26:37.773Z,0.91
2022-11-29T07:27:37.740Z,0.91
2022-11-29T07:28:37.678Z,1.04
2022-11-29T07:29:37.663Z,1.06
2022-11-29T07:30:37.665Z,1.08
2022-11-29T07:31:37.673Z,1.14
2022-11-29T07:32:37.670Z,1.16
2022-11-29T07:33:37.624Z,1.16
2022-11-29T07:34:38.490Z,1.23
2022-11-29T07:35:38.440Z,1.28
2022-11-29T07:36:37.585Z,1.24
2022-11-29T07:37:38.539Z,1.32
2022-11-29T07:38:37.598Z,1.31
2022-11-29T07:39:37.555Z,1.35
2022-11-29T07:40:38.092Z,1.42
2022-11-29T07:41:37.535Z,1.37
2022-11-29T07:42:37.520Z,1.49
2022-11-29T07:43:37.511Z,1.50
2022-11-29T07:44:37.570Z,1.53
2022-11-29T07:45:37.488Z,1.52
2022-11-29T07:46:37.513Z,1.59
2022-11-29T07:47:37.469Z,1.56
2022-11-29T07:48:37.549Z,1.56
2022-11-29T07:49:37.465Z,1.60
2022-11-29T07:50:37.506Z,1.59
2022-11-29T07:51:37.453Z,1.63
2022-11-29T07:52:37.410Z,1.62
2022-11-29T07:53:37.423Z,1.71
2022-11-29T07:54:37.412Z,1.73
2022-11-29T07:55:37.388Z,1.71
2022-11-29T07:56:37.618Z,1.74
2022-11-29T07:57:37.354Z,1.85
2022-11-29T07:58:37.419Z,1.88
2022-11-29T07:59:37.332Z,1.85
2022-11-29T08:00:37.443Z,1.92
2022-11-29T08:01:37.351Z,1.94
2022-11-29T08:02:37.391Z,1.91
2022-11-29T08:03:37.285Z,2.02
2022-11-29T08:04:37.302Z,2.00
2022-11-29T08:05:37.269Z,2.00
2022-11-29T08:06:37.254Z,2.13
2022-11-29T08:07:37.322Z,2.18
2022-11-29T08:08:42.364Z,2.13
2022-11-29T08:09:38.232Z,2.25
2022-11-29T08:10:37.205Z,2.14
2022-11-29T08:11:37.194Z,2.26
2022-11-29T08:12:37.186Z,2.28
2022-11-29T08:13:37.178Z,2.29
2022-11-29T08:14:37.287Z,2.31
2022-11-29T08:15:37.153Z,2.29
2022-11-29T08:16:37.375Z,2.33
2022-11-29T08:17:37.128Z,2.43
2022-11-29T08:18:37.122Z,2.53
2022-11-29T08:19:37.105Z,2.47
2022-11-29T08:20:37.197Z,2.54
2022-11-29T08:21:37.100Z,2.65
2022-11-29T08:22:37.075Z,2.50
2022-11-29T08:23:37.064Z,2.71
2022-11-29T08:24:37.052Z,2.68
2022-11-29T08:25:37.073Z,2.72
2022-11-29T08:26:37.108Z,2.71
2022-11-29T08:27:38.045Z,2.86
2022-11-29T08:28:37.012Z,2.83
2022-11-29T08:29:37.020Z,2.85
2022-11-29T08:30:36.992Z,2.83
2022-11-29T08:31:37.547Z,2.95
2022-11-29T08:32:36.992Z,2.95
2022-11-29T08:33:36.954Z,3.03
2022-11-29T08:34:36.954Z,3.08
2022-11-29T08:35:37.016Z,3.10
2022-11-29T08:36:36.948Z,3.13
2022-11-29T08:37:36.909Z,3.19
2022-11-29T08:38:36.978Z,3.14
2022-11-29T08:39:36.885Z,3.16
2022-11-29T08:40:36.868Z,3.37
2022-11-29T08:41:36.861Z,3.32
2022-11-29T08:42:36.880Z,3.31
2022-11-29T08:43:36.833Z,3.36
2022-11-29T08:44:36.876Z,3.40
2022-11-29T08:45:36.880Z,3.47
2022-11-29T08:46:36.955Z,3.42
2022-11-29T08:47:36.798Z,3.48
2022-11-29T08:48:36.990Z,3.53
2022-11-29T08:49:36.773Z,3.56
2022-11-29T08:50:36.820Z,3.59
2022-11-29T08:51:36.750Z,3.62
2022-11-29T08:52:36.786Z,3.62
2022-11-29T08:53:36.719Z,3.69
2022-11-29T08:54:36.720Z,3.66
2022-11-29T08:55:36.712Z,3.76
2022-11-29T08:57:40.182Z,3.87
2022-11-29T08:58:36.662Z,3.76
2022-11-29T08:59:36.661Z,3.88
2022-11-29T09:00:36.642Z,3.92
2022-11-29T09:01:36.746Z,3.86
2022-11-29T09:02:36.796Z,3.87
2022-11-29T09:03:36.641Z,4.02
2022-11-29T09:04:36.623Z,4.04
2022-11-29T09:05:36.592Z,3.94
2022-11-29T09:06:36.594Z,4.02
2022-11-29T09:07:36.633Z,4.02
2022-11-29T09:08:36.741Z,4.04
2022-11-29T09:09:36.570Z,4.10
2022-11-29T09:10:36.570Z,4.16
2022-11-29T09:11:36.521Z,4.20
2022-11-29T09:12:36.508Z,4.23
2022-11-29T09:13:36.554Z,4.22
2022-11-29T09:14:36.538Z,4.14
2022-11-29T09:15:36.481Z,4.20
2022-11-29T09:16:36.616Z,4.30
2022-11-29T09:17:36.504Z,4.32
2022-11-29T09:18:36.443Z,4.23
2022-11-29T09:19:36.482Z,4.30
2022-11-29T09:20:36.624Z,4.34
2022-11-29T09:21:36.532Z,4.34
2022-11-29T09:22:36.402Z,4.37
2022-11-29T09:23:36.388Z,4.35
2022-11-29T09:24:36.402Z,4.37
2022-11-29T09:25:36.363Z,4.42
2022-11-29T09:26:36.416Z,4.40
2022-11-29T09:27:36.347Z,4.50
2022-11-29T09:28:36.342Z,4.48
2022-11-29T09:29:36.322Z,4.56
2022-11-29T09:30:36.311Z,4.63
2022-11-29T09:31:36.391Z,4.59
2022-11-29T09:32:36.380Z,4.70
2022-11-29T09:33:36.284Z,4.66
2022-11-29T09:34:36.259Z,4.71
2022-11-29T09:35:36.288Z,4.73
2022-11-29T09:36:36.282Z,4.73
2022-11-29T09:37:36.228Z,4.84
2022-11-29T09:38:36.391Z,4.84
2022-11-29T09:39:36.411Z,4.82
2022-11-29T09:40:36.424Z,4.87
2022-11-29T09:41:36.180Z,4.92
2022-11-29T09:42:36.167Z,5.00
2022-11-29T09:43:36.163Z,4.97
2022-11-29T09:44:36.198Z,4.96
2022-11-29T09:45:36.214Z,5.00
2022-11-29T09:46:36.126Z,5.05
2022-11-29T09:47:37.071Z,5.10
2022-11-29T09:48:36.108Z,5.00
2022-11-29T09:49:36.094Z,5.07
2022-11-29T09:50:36.554Z,5.18
2022-11-29T09:51:41.171Z,5.15
2022-11-29T09:52:37.130Z,5.18
2022-11-29T09:53:36.151Z,5.32
2022-11-29T09:54:36.038Z,5.23
2022-11-29T09:55:36.062Z,5.32
2022-11-29T09:56:36.093Z,5.36
2022-11-29T09:57:36.009Z,5.39
2022-11-29T09:58:36.033Z,5.50
2022-11-29T09:59:35.990Z,5.53
2022-11-29T10:00:35.970Z,5.48
2022-11-29T10:01:35.986Z,5.47
2022-11-29T10:02:36.039Z,5.59
2022-11-29T10:03:35.933Z,5.57
2022-11-29T10:04:35.929Z,5.59
2022-11-29T10:05:35.912Z,5.69
2022-11-29T10:06:35.907Z,5.64
2022-11-29T10:07:36.026Z,5.68
2022-11-29T10:08:35.944Z,5.66
2022-11-29T10:09:35.865Z,5.73
2022-11-29T10:10:35.854Z,5.71
2022-11-29T10:11:35.846Z,5.82
2022-11-29T10:12:35.899Z,5.79
2022-11-29T10:13:35.818Z,5.82
2022-11-29T10:14:35.841Z,5.91
2022-11-29T10:15:35.839Z,5.87
2022-11-29T10:16:35.837Z,5.97
2022-11-29T10:17:35.803Z,5.93
2022-11-29T10:18:35.763Z,6.01
2022-11-29T10:19:35.786Z,5.99
2022-11-29T10:20:40.453Z,6.08
2022-11-29T10:21:36.728Z,6.12
2022-11-29T10:22:35.747Z,6.04
2022-11-29T10:23:35.710Z,6.08
2022-11-29T10:24:35.697Z,6.24
2022-11-29T10:25:35.686Z,6.22
2022-11-29T10:26:36.038Z,6.24
2022-11-29T10:27:35.659Z,6.30
2022-11-29T10:28:35.697Z,6.39
2022-11-29T10:29:35.649Z,6.39
2022-11-29T10:30:35.682Z,6.35
2022-11-29T10:31:35.641Z,6.38
2022-11-29T10:32:35.675Z,6.39
2022-11-29T10:33:35.595Z,6.46
2022-11-29T10:34:35.578Z,6.41
2022-11-29T10:35:35.572Z,6.56
2022-11-29T10:36:35.631Z,6.52
2022-11-29T10:37:35.638Z,6.49
2022-11-29T10:38:35.575Z,6.69
2022-11-29T10:39:35.528Z,6.72
2022-11-29T10:40:36.127Z,6.70
2022-11-29T10:41:35.501Z,6.74
2022-11-29T10:42:35.487Z,6.69
2022-11-29T10:43:35.502Z,6.82
2022-11-29T10:44:35.532Z,6.88
2022-11-29T10:45:35.521Z,6.88
2022-11-29T10:46:35.532Z,6.92
2022-11-29T10:47:35.435Z,6.99
2022-11-29T10:48:35.442Z,7.00
2022-11-29T10:49:35.416Z,7.06
2022-11-29T10:50:35.513Z,7.05
2022-11-29T10:51:35.419Z,7.06
2022-11-29T10:52:35.383Z,7.05
2022-11-29T10:53:35.366Z,7.10
2022-11-29T10:54:35.361Z,7.13
2022-11-29T10:55:36.057Z,7.11
2022-11-29T10:56:35.375Z,7.29
2022-11-29T10:57:35.400Z,7.31
2022-11-29T10:58:36.085Z,7.29
2022-11-29T10:59:35.327Z,7.33
2022-11-29T11:00:35.547Z,7.29
2022-11-29T11:01:35.303Z,7.39
2022-11-29T11:02:36.034Z,7.43
2022-11-29T11:03:35.285Z,7.43
2022-11-29T11:04:36.259Z,7.43
2022-11-29T11:05:35.266Z,7.53
2022-11-29T11:06:35.221Z,7.56
2022-11-29T11:07:35.307Z,7.50
2022-11-29T11:08:35.557Z,7.63
2022-11-29T11:09:35.185Z,7.63
2022-11-29T11:10:35.207Z,7.69
2022-11-29T11:11:35.162Z,7.69
2022-11-29T11:12:35.159Z,7.72
2022-11-29T11:13:35.218Z,7.75
2022-11-29T11:14:35.137Z,7.77
2022-11-29T11:15:35.171Z,7.80
2022-11-29T11:16:37.585Z,7.77
2022-11-29T11:17:35.976Z,7.91
2022-11-29T11:18:35.086Z,7.85
2022-11-29T11:19:35.098Z,8.00
2022-11-29T11:20:35.150Z,7.88
2022-11-29T11:21:35.053Z,7.98
2022-11-29T11:22:35.039Z,7.93
2022-11-29T11:23:39.914Z,7.94
2022-11-29T11:24:36.981Z,8.00
2022-11-29T11:25:35.032Z,7.94
2022-11-29T11:26:35.018Z,7.94
2022-11-29T11:27:34.986Z,7.98
2022-11-29T11:28:35.074Z,8.03
2022-11-29T11:29:34.970Z,8.13
2022-11-29T11:30:35.001Z,8.09
2022-11-29T11:31:35.009Z,8.08
2022-11-29T11:32:35.035Z,8.19
2022-11-29T11:33:34.968Z,8.18
2022-11-29T11:34:34.907Z,8.16
2022-11-29T11:35:34.952Z,8.26
2022-11-29T11:36:34.881Z,8.20
2022-11-29T11:37:34.957Z,8.23
2022-11-29T11:38:34.878Z,8.23
2022-11-29T11:39:34.871Z,8.27
2022-11-29T11:40:34.914Z,8.26
2022-11-29T11:41:34.938Z,8.33
2022-11-29T11:42:34.817Z,8.31
2022-11-29T11:43:34.806Z,8.37
2022-11-29T11:44:50.201Z,8.33
2022-11-29T11:45:35.808Z,8.36
2022-11-29T11:46:34.808Z,8.38
2022-11-29T11:47:34.897Z,8.36
2022-11-29T11:48:34.775Z,8.44
2022-11-29T11:49:34.735Z,8.42
2022-11-29T11:50:34.809Z,8.34
2022-11-29T11:51:34.747Z,8.45
2022-11-29T11:52:39.816Z,8.44
2022-11-29T11:53:34.731Z,8.49
2022-11-29T11:54:34.681Z,8.46
2022-11-29T11:55:34.685Z,8.49
2022-11-29T11:56:34.726Z,8.55
2022-11-29T11:57:34.648Z,8.49
2022-11-29T11:58:34.660Z,8.53
2022-11-29T11:59:34.626Z,8.52
2022-11-29T12:01:01.745Z,8.53
2022-11-29T12:01:35.634Z,8.60
2022-11-29T12:02:34.809Z,8.51
2022-11-29T12:03:34.656Z,8.58
2022-11-29T12:04:34.594Z,8.56
2022-11-29T12:05:34.564Z,8.48
2022-11-29T12:06:34.545Z,8.51
2022-11-29T12:08:06.044Z,8.55
2022-11-29T12:08:35.603Z,8.66
2022-11-29T12:09:34.509Z,8.61
2022-11-29T12:10:34.563Z,8.53
2022-11-29T12:11:34.491Z,8.56
2022-11-29T12:12:34.600Z,8.66
2022-11-29T12:13:34.492Z,8.64
2022-11-29T12:14:34.455Z,8.70
2022-11-29T12:15:34.534Z,8.64
2022-11-29T12:16:34.435Z,8.66
2022-11-29T12:17:34.435Z,8.64
2022-11-29T12:18:34.518Z,8.66
2022-11-29T12:19:34.423Z,8.64
2022-11-29T12:20:34.520Z,8.67
2022-11-29T12:21:34.380Z,8.64
2022-11-29T12:22:34.363Z,8.64
2022-11-29T12:23:34.350Z,8.71
2022-11-29T12:24:34.345Z,8.53
2022-11-29T12:25:34.359Z,8.67
2022-11-29T12:26:56.446Z,8.66
2022-11-29T12:27:35.310Z,8.64
2022-11-29T12:28:34.333Z,8.64
2022-11-29T12:29:34.285Z,8.73
2022-11-29T12:30:34.301Z,8.60
2022-11-29T12:31:34.351Z,8.66
2022-11-29T12:32:34.250Z,8.64
2022-11-29T12:33:34.234Z,8.66
2022-11-29T12:34:34.227Z,8.73
2022-11-29T12:35:34.251Z,8.70
2022-11-29T12:36:34.227Z,8.70
2022-11-29T12:37:34.282Z,8.60
2022-11-29T12:38:34.195Z,8.73
2022-11-29T12:39:34.174Z,8.58
2022-11-29T12:40:34.177Z,8.67
2022-11-29T12:41:34.137Z,8.69
2022-11-29T12:42:34.126Z,8.64
2022-11-29T12:43:34.181Z,8.70
2022-11-29T12:44:34.106Z,8.64
2022-11-29T12:45:34.120Z,8.66
2022-11-29T12:46:34.262Z,8.55
2022-11-29T12:47:36.530Z,8.63
2022-11-29T12:48:34.063Z,8.69
2022-11-29T12:49:34.080Z,8.58
2022-11-29T12:50:34.041Z,8.66
2022-11-29T12:51:34.041Z,8.74
2022-11-29T12:52:34.044Z,8.63
2022-11-29T12:53:34.001Z,8.74
2022-11-29T12:54:34.002Z,8.66
2022-11-29T12:55:34.072Z,8.82
2022-11-29T12:56:34.050Z,8.74
2022-11-29T12:57:33.955Z,8.66
2022-11-29T12:58:33.957Z,8.67
2022-11-29T12:59:33.937Z,8.64
2022-11-29T13:00:33.975Z,8.69
2022-11-29T13:01:34.017Z,8.76
2022-11-29T13:02:33.962Z,8.71
2022-11-29T13:03:33.896Z,8.76
2022-11-29T13:04:33.876Z,8.76
2022-11-29T13:05:33.869Z,8.64
2022-11-29T13:06:33.858Z,8.71
2022-11-29T13:07:33.959Z,8.63
2022-11-29T13:08:33.868Z,8.71
2022-11-29T13:09:33.944Z,8.84
2022-11-29T13:10:33.827Z,8.63
2022-11-29T13:11:33.792Z,8.76